Time;durP1;ratioP1;P1;durP2;ratioP2;P2;SDS_P1;SDS_P2;PMS_P1;PMS_P2;Temp;Humidity;BMP_temperature;BMP_pressure;BME280_temperature;BME280_humidity;BME280_pressure;Samples;Min_cycle;Max_cycle;Signal;HPM_P1;HPM_P2
2022/01/21 00:00:39;;;;;;;16.02;4.55;;;;;;;-2.06;100.00;103421.47;5046206;28;20028;-81
2022/01/21 00:03:04;;;;;;;16.77;4.63;;;;;;;-2.12;100.00;103425.38;5030878;28;20072;-81
2022/01/21 00:05:30;;;;;;;21.42;5.90;;;;;;;-2.18;100.00;103429.19;5034904;28;20155;-81
2022/01/21 00:07:55;;;;;;;24.35;5.55;;;;;;;-2.25;100.00;103425.31;5034800;28;20035;-81
2022/01/21 00:10:20;;;;;;;26.27;5.70;;;;;;;-2.26;100.00;103426.06;5044223;28;20033;-81
2022/01/21 00:12:47;;;;;;;20.25;5.82;;;;;;;-2.27;100.00;103439.63;5049865;28;20017;-81
2022/01/21 00:15:12;;;;;;;23.42;5.65;;;;;;;-2.29;100.00;103431.00;5050549;28;20020;-82
2022/01/21 00:17:38;;;;;;;23.80;5.70;;;;;;;-2.29;100.00;103428.44;5050129;28;20428;-81
2022/01/21 00:31:02;;;;;;;19.40;5.57;;;;;;;-2.03;100.00;103421.69;5053924;28;20448;-81
2022/01/21 00:33:28;;;;;;;25.40;5.45;;;;;;;-2.02;100.00;103421.81;5053290;28;20029;-81
2022/01/21 00:35:53;;;;;;;25.35;5.20;;;;;;;-2.01;100.00;103422.69;5053944;28;20129;-81
2022/01/21 00:38:20;;;;;;;26.75;4.65;;;;;;;-2.05;100.00;103411.38;5054131;28;21702;-81
2022/01/21 00:40:45;;;;;;;29.30;4.97;;;;;;;-2.05;100.00;103413.03;5053029;28;20388;-81
2022/01/21 00:45:38;;;;;;;23.70;4.70;;;;;;;-2.12;100.00;103412.59;5053539;28;20458;-82
2022/01/21 00:48:04;;;;;;;26.40;5.35;;;;;;;-2.16;100.00;103418.28;5052920;28;20056;-81
2022/01/21 00:50:30;;;;;;;17.13;4.25;;;;;;;-2.20;100.00;103417.97;5053834;28;20044;-81
2022/01/21 00:52:55;;;;;;;16.20;4.78;;;;;;;-2.27;100.00;103419.19;5053067;28;20467;-82
2022/01/21 00:55:20;;;;;;;25.95;4.82;;;;;;;-2.34;100.00;103419.56;5053124;28;20495;-81
2022/01/21 00:57:46;;;;;;;22.30;5.47;;;;;;;-2.37;100.00;103432.09;5053665;28;20024;-81
2022/01/21 01:00:13;;;;;;;23.42;4.53;;;;;;;-2.41;100.00;103425.91;5052553;28;20033;-82
2022/01/21 01:02:39;;;;;;;17.15;4.80;;;;;;;-2.42;100.00;103438.53;5053238;28;20024;-81
2022/01/21 01:05:06;;;;;;;17.95;4.47;;;;;;;-2.45;100.00;103438.34;5053028;28;20033;-81
2022/01/21 01:07:31;;;;;;;23.85;4.32;;;;;;;-2.49;100.00;103436.34;5053011;28;20037;-81
2022/01/21 01:09:58;;;;;;;19.98;4.97;;;;;;;-2.49;100.00;103441.44;5052246;28;20032;-81
2022/01/21 01:20:23;;;;;;;20.80;3.95;;;;;;;-2.61;100.00;103429.59;5053015;28;20036;-81
2022/01/21 01:28:36;;;;;;;19.33;4.50;;;;;;;-2.71;100.00;103422.06;5030063;28;20079;-81
2022/01/21 01:31:02;;;;;;;26.48;5.07;;;;;;;-2.70;100.00;103416.16;5043220;28;20476;-81
2022/01/21 01:33:35;;;;;;;20.83;5.15;;;;;;;-2.73;100.00;103415.94;5052675;28;20029;-81
2022/01/21 01:36:02;;;;;;;21.77;4.10;;;;;;;-2.71;100.00;103422.06;5051078;28;20428;-82
2022/01/21 01:41:14;;;;;;;;;;;;;;;-2.68;100.00;103423.91;5053019;28;20587;-81
2022/01/21 01:51:51;;;;;;;;;;;;;;;-2.65;100.00;103404.63;5033617;28;20099;-81
2022/01/21 01:54:17;;;;;;;22.52;3.70;;;;;;;-2.53;100.00;103409.69;5042334;28;19921;-81
2022/01/21 01:56:47;;;;;;;18.92;3.78;;;;;;;-2.47;100.00;103407.56;5051315;28;20082;-82
2022/01/21 01:59:13;;;;;;;17.27;3.90;;;;;;;-2.44;100.00;103412.91;5052239;28;20021;-81
2022/01/21 02:01:38;;;;;;;21.90;4.07;;;;;;;-2.43;100.00;103401.00;5052442;28;20492;-81
2022/01/21 02:04:04;;;;;;;18.48;4.47;;;;;;;-2.45;100.00;103405.16;5050845;28;20040;-81
2022/01/21 02:06:29;;;;;;;23.13;3.95;;;;;;;-2.47;100.00;103404.13;5052732;28;20033;-81
2022/01/21 02:08:55;;;;;;;23.70;3.65;;;;;;;-2.50;100.00;103396.25;5050961;28;20017;-81
2022/01/21 02:11:20;;;;;;;21.88;4.25;;;;;;;-2.49;100.00;103410.78;5051678;28;20134;-81
2022/01/21 02:13:56;;;;;;;16.40;3.25;;;;;;;-2.54;100.00;103409.59;5051157;28;20106;-81
2022/01/21 02:21:39;;;;;;;15.45;3.58;;;;;;;-2.61;100.00;103419.38;5051064;28;20051;-81
2022/01/21 02:24:11;;;;;;;19.15;4.30;;;;;;;-2.63;100.00;103413.25;5051998;28;20083;-81
2022/01/21 02:26:37;;;;;;;15.15;4.43;;;;;;;-2.64;100.00;103410.59;5050314;28;20036;-81
2022/01/21 02:29:04;;;;;;;22.05;4.13;;;;;;;-2.66;100.00;103413.03;5050576;28;20037;-81
2022/01/21 02:31:31;;;;;;;18.08;4.05;;;;;;;-2.65;100.00;103406.25;5051101;28;20036;-81
2022/01/21 02:33:57;;;;;;;18.27;3.63;;;;;;;-2.65;100.00;103402.06;5051954;28;20025;-81
2022/01/21 02:36:23;;;;;;;18.92;4.13;;;;;;;-2.65;100.00;103403.72;5051570;28;20131;-81
2022/01/21 02:38:48;;;;;;;16.67;3.75;;;;;;;-2.70;100.00;103394.84;5050836;28;20112;-81
2022/01/21 02:41:13;;;;;;;17.30;3.72;;;;;;;-2.74;100.00;103395.41;5051549;28;20067;-81
2022/01/21 02:43:39;;;;;;;20.73;3.70;;;;;;;-2.75;100.00;103407.25;5051538;28;20835;-81
2022/01/21 02:46:07;;;;;;;17.88;3.53;;;;;;;-2.78;100.00;103407.06;5050695;28;20029;-81
2022/01/21 02:48:36;;;;;;;21.55;3.90;;;;;;;-2.85;100.00;103402.28;5050841;28;20032;-81
2022/01/21 02:51:02;;;;;;;19.13;4.18;;;;;;;-2.83;100.00;103416.94;5051149;28;20051;-81
2022/01/21 02:53:40;;;;;;;24.60;4.68;;;;;;;-2.47;100.00;103416.91;5050510;28;20473;-81
2022/01/21 02:56:09;;;;;;;16.65;3.85;;;;;;;-2.37;100.00;103415.09;5051203;28;20087;-81
2022/01/21 02:58:35;;;;;;;12.57;3.25;;;;;;;-2.42;100.00;103420.66;5050850;28;20021;-81
2022/01/21 03:01:01;;;;;;;12.88;3.38;;;;;;;-2.49;100.00;103414.22;5050573;28;20086;-81
2022/01/21 03:03:26;;;;;;;16.13;4.47;;;;;;;-2.53;100.00;103427.56;5051072;28;20558;-81
2022/01/21 03:05:51;;;;;;;13.38;3.58;;;;;;;-2.57;100.00;103429.81;5051025;28;20439;-81
2022/01/21 03:08:17;;;;;;;21.08;3.42;;;;;;;-2.63;100.00;103427.69;5050476;28;20064;-81
2022/01/21 03:10:42;;;;;;;13.63;3.00;;;;;;;-2.68;100.00;103421.34;5051230;28;20468;-81
2022/01/21 03:13:08;;;;;;;18.27;3.65;;;;;;;-2.77;100.00;103410.50;5050847;28;20120;-81
2022/01/21 03:15:33;;;;;;;19.15;3.80;;;;;;;-2.76;100.00;103425.03;5049841;28;20063;-81
2022/01/21 03:17:58;;;;;;;25.10;4.60;;;;;;;-2.82;100.00;103416.16;5051204;28;20087;-81
2022/01/21 03:20:24;;;;;;;16.95;4.22;;;;;;;-2.88;100.00;103414.81;5051434;28;20070;-81
2022/01/21 03:22:49;;;;;;;10.88;3.75;;;;;;;-2.87;100.00;103431.94;5050417;28;20029;-81
2022/01/21 03:25:14;;;;;;;12.93;3.38;;;;;;;-2.90;100.00;103435.16;5050741;28;20388;-81
2022/01/21 03:27:40;;;;;;;13.05;3.35;;;;;;;-2.98;100.00;103422.59;5050213;28;20082;-81
2022/01/21 03:30:09;;;;;;;19.10;4.10;;;;;;;-2.98;100.00;103432.78;5050674;28;20052;-81
2022/01/21 03:32:34;;;;;;;15.15;3.42;;;;;;;-3.02;100.00;103435.91;5050596;28;20362;-81
2022/01/21 03:34:59;;;;;;;21.38;3.95;;;;;;;-3.00;100.00;103439.47;5050086;28;20040;-81
2022/01/21 03:37:25;;;;;;;16.77;3.70;;;;;;;-3.04;100.00;103442.56;5050909;28;20064;-81
2022/01/21 03:39:51;;;;;;;19.23;3.80;;;;;;;-3.04;100.00;103438.38;5051027;28;20516;-81
2022/01/21 03:42:16;;;;;;;14.38;3.88;;;;;;;-3.04;100.00;103440.91;5050418;28;20037;-81
2022/01/21 03:44:41;;;;;;;14.68;4.07;;;;;;;-3.06;100.00;103445.88;5050550;28;20029;-81
2022/01/21 03:47:07;;;;;;;21.73;3.70;;;;;;;-3.11;100.00;103431.91;5050711;28;20024;-81
2022/01/21 03:49:38;;;;;;;16.83;4.30;;;;;;;-3.08;100.00;103442.31;5050304;28;20021;-80
2022/01/21 03:52:05;;;;;;;18.13;4.22;;;;;;;-3.08;100.00;103437.22;5050908;28;20029;-81
2022/01/21 03:54:30;;;;;;;24.63;4.25;;;;;;;-3.10;100.00;103438.78;5051139;28;20044;-81
2022/01/21 03:56:56;;;;;;;18.63;3.58;;;;;;;-3.05;100.00;103441.66;5050052;28;20025;-81
2022/01/21 03:59:21;;;;;;;19.30;3.72;;;;;;;-3.08;100.00;103441.44;5052493;28;20063;-80
2022/01/21 04:01:46;;;;;;;11.98;3.85;;;;;;;-3.11;100.00;103438.66;5054331;28;20036;-81
2022/01/21 04:04:11;;;;;;;10.30;2.83;;;;;;;-3.09;100.00;103440.56;5053409;28;20041;-81
2022/01/21 04:06:37;;;;;;;14.57;3.63;;;;;;;-3.07;100.00;103449.22;5054561;28;20025;-81
2022/01/21 04:09:03;;;;;;;15.27;4.53;;;;;;;-3.07;100.00;103446.69;5054326;28;20027;-81
2022/01/21 04:11:28;;;;;;;13.75;4.00;;;;;;;-3.07;100.00;103444.13;5053250;28;20048;-81
2022/01/21 04:13:55;;;;;;;14.02;3.70;;;;;;;-3.08;100.00;103444.88;5054567;28;20425;-80
2022/01/21 04:16:20;;;;;;;20.52;5.35;;;;;;;-3.16;100.00;103438.34;5054754;28;20037;-81
2022/01/21 04:18:45;;;;;;;26.20;4.20;;;;;;;-3.10;100.00;103435.34;5053792;28;20430;-81
2022/01/21 04:21:11;;;;;;;15.95;3.58;;;;;;;-3.08;100.00;103449.09;5054287;28;20127;-81
2022/01/21 04:23:36;;;;;;;18.48;3.70;;;;;;;-3.07;100.00;103439.03;5054056;28;20071;-81
2022/01/21 04:26:01;;;;;;;25.17;4.03;;;;;;;-3.08;100.00;103437.22;5053575;28;20115;-81
2022/01/21 04:28:27;;;;;;;15.98;4.35;;;;;;;-3.13;100.00;103424.91;5053791;28;20493;-81
2022/01/21 04:30:52;;;;;;;19.17;4.05;;;;;;;-3.00;100.00;103436.94;5053548;28;20112;-81
2022/01/21 04:33:17;;;;;;;18.27;4.15;;;;;;;-2.95;100.00;103438.13;5054084;28;20383;-81
2022/01/21 04:35:42;;;;;;;22.95;3.95;;;;;;;-2.96;100.00;103433.81;5053867;28;20033;-81
2022/01/21 04:38:10;;;;;;;16.00;3.58;;;;;;;-2.96;100.00;103431.25;5053011;28;20472;-80
2022/01/21 04:40:44;;;;;;;16.17;3.47;;;;;;;-3.03;100.00;103431.59;5053605;28;20033;-81
2022/01/21 04:48:38;;;;;;;13.38;3.08;;;;;;;-3.14;100.00;103436.81;5053856;28;20411;-81
2022/01/21 04:51:19;;;;;;;19.63;4.00;;;;;;;-3.14;100.00;103434.25;5053935;28;20029;-81
2022/01/21 04:53:47;;;;;;;16.85;4.10;;;;;;;-3.07;100.00;103435.59;5053109;28;20039;-81
2022/01/21 04:56:13;;;;;;;22.45;3.67;;;;;;;-2.98;100.00;103425.13;5053229;28;20483;-81
2022/01/21 04:58:39;;;;;;;17.42;4.13;;;;;;;-2.94;100.00;103424.63;5053211;28;20021;-81
2022/01/21 05:01:06;;;;;;;15.98;3.80;;;;;;;-2.97;100.00;103432.03;5052732;28;20029;-81
2022/01/21 05:03:32;;;;;;;13.18;3.75;;;;;;;-2.99;100.00;103434.47;5053331;28;20465;-81
2022/01/21 05:05:57;;;;;;;20.45;4.15;;;;;;;-3.03;100.00;103429.91;5053739;28;20035;-80
2022/01/21 05:08:28;;;;;;;19.50;3.70;;;;;;;-3.03;100.00;103418.84;5052661;28;20021;-81
2022/01/21 05:10:54;;;;;;;14.13;4.03;;;;;;;-3.08;100.00;103424.47;5053075;28;20029;-81
2022/01/21 05:13:24;;;;;;;20.52;4.75;;;;;;;-3.06;100.00;103406.72;5052838;28;20851;-81
2022/01/21 05:16:03;;;;;;;14.50;4.65;;;;;;;-3.01;100.00;103417.25;5053520;28;20086;-81
2022/01/21 05:18:28;;;;;;;13.38;3.42;;;;;;;-3.05;100.00;103421.25;5053304;28;20025;-81
2022/01/21 05:20:54;;;;;;;17.70;4.82;;;;;;;-3.02;100.00;103420.59;5052676;28;20515;-81
2022/01/21 05:23:20;;;;;;;13.80;4.13;;;;;;;-3.08;100.00;103419.34;5052997;28;20090;-80
2022/01/21 05:25:45;;;;;;;14.30;4.18;;;;;;;-3.01;100.00;103428.34;5053028;28;20029;-80
2022/01/21 05:28:11;;;;;;;18.90;4.40;;;;;;;-2.96;100.00;103427.03;5051470;28;20270;-81
2022/01/21 05:30:36;;;;;;;21.38;4.47;;;;;;;-2.92;100.00;103430.69;5053001;28;20033;-81
2022/01/21 05:33:02;;;;;;;25.60;4.85;;;;;;;-2.90;100.00;103430.03;5052917;28;20027;-80
2022/01/21 05:35:27;;;;;;;18.48;4.05;;;;;;;-2.95;100.00;103444.13;5052119;28;20537;-81
2022/01/21 05:37:52;;;;;;;18.00;4.18;;;;;;;-3.01;100.00;103427.47;5052511;28;20029;-81
2022/01/21 05:40:19;;;;;;;23.92;4.20;;;;;;;-3.03;100.00;103439.25;5053014;28;20552;-81
2022/01/21 05:42:45;;;;;;;18.52;4.60;;;;;;;-3.06;100.00;103448.44;5052138;28;20029;-81
2022/01/21 05:47:55;;;;;;;17.55;4.97;;;;;;;-3.12;100.00;103437.78;5053139;28;20440;-80
2022/01/21 05:50:21;;;;;;;18.95;5.15;;;;;;;-3.14;100.00;103431.69;5051873;28;20057;-81
2022/01/21 05:52:47;;;;;;;20.25;5.68;;;;;;;-3.13;100.00;103423.25;5052169;28;20025;-81
2022/01/21 05:55:14;;;;;;;23.35;5.90;;;;;;;-3.06;100.00;103430.56;5051725;28;20103;-81
2022/01/21 05:57:39;;;;;;;26.63;5.85;;;;;;;-3.01;100.00;103436.00;5052281;28;20029;-81
2022/01/21 06:00:05;;;;;;;18.83;5.70;;;;;;;-3.00;100.00;103442.03;5052214;28;20029;-81
2022/01/21 06:02:31;;;;;;;22.63;6.40;;;;;;;-3.06;100.00;103445.88;5051691;28;20025;-81
2022/01/21 06:04:56;;;;;;;23.45;5.63;;;;;;;-3.13;100.00;103443.66;5051967;28;20027;-81
2022/01/21 06:07:22;;;;;;;21.83;6.85;;;;;;;-3.14;100.00;103452.09;5052744;28;20043;-80
2022/01/21 06:09:47;;;;;;;20.45;6.00;;;;;;;-3.19;100.00;103443.22;5051278;28;20033;-80
2022/01/21 06:12:12;;;;;;;21.00;5.60;;;;;;;-3.23;100.00;103446.31;5052299;28;20091;-81
2022/01/21 06:14:38;;;;;;;22.35;6.55;;;;;;;-3.23;100.00;103446.31;5052394;28;20025;-81
2022/01/21 06:17:04;;;;;;;29.15;7.13;;;;;;;-3.24;100.00;103453.84;5051432;28;20033;-81
2022/01/21 06:19:30;;;;;;;20.00;7.00;;;;;;;-3.21;100.00;103454.94;5051402;28;20052;-80
2022/01/21 06:21:55;;;;;;;25.90;7.50;;;;;;;-3.20;100.00;103456.75;5051286;28;20124;-81
2022/01/21 06:24:20;;;;;;;18.15;7.60;;;;;;;-3.22;100.00;103450.63;5051298;28;20112;-81
2022/01/21 06:26:46;;;;;;;34.90;9.70;;;;;;;-3.14;100.00;103458.84;5051652;28;20033;-81
2022/01/21 06:29:11;;;;;;;28.13;9.60;;;;;;;-3.12;100.00;103450.53;5051814;28;20401;-81
2022/01/21 06:31:37;;;;;;;29.80;10.57;;;;;;;-3.06;100.00;103456.09;5050689;28;20064;-81
2022/01/21 06:34:02;;;;;;;26.45;11.30;;;;;;;-2.95;100.00;103464.53;5051863;28;20029;-81
2022/01/21 06:36:28;;;;;;;31.13;12.25;;;;;;;-2.83;100.00;103475.66;5051477;28;20039;-81
2022/01/21 06:38:54;;;;;;;36.42;14.32;;;;;;;-2.66;100.00;103473.44;5050832;28;20017;-81
2022/01/21 06:41:19;;;;;;;35.53;14.05;;;;;;;-2.57;100.00;103473.22;5052109;28;20452;-81
2022/01/21 06:43:44;;;;;;;38.33;15.40;;;;;;;-2.45;100.00;103469.00;5051278;28;20039;-81
2022/01/21 06:46:11;;;;;;;37.90;16.98;;;;;;;-2.29;100.00;103487.22;5050725;28;20021;-81
2022/01/21 06:48:36;;;;;;;41.70;19.13;;;;;;;-2.21;100.00;103486.06;5051556;28;20412;-80
2022/01/21 06:51:01;;;;;;;44.22;17.60;;;;;;;-2.16;100.00;103482.19;5051591;28;20021;-81
2022/01/21 06:53:27;;;;;;;43.67;16.38;;;;;;;-2.24;100.00;103482.41;5050749;28;20056;-81
2022/01/21 06:55:53;;;;;;;40.58;17.23;;;;;;;-2.18;100.00;103493.09;5051082;28;20067;-81
2022/01/21 06:58:18;;;;;;;40.53;16.63;;;;;;;-2.10;100.00;103488.50;5051547;28;20119;-81
2022/01/21 07:00:43;;;;;;;45.45;17.33;;;;;;;-1.97;100.00;103497.13;5050425;28;20407;-81
2022/01/21 07:03:09;;;;;;;45.72;19.17;;;;;;;-1.90;100.00;103490.78;5044108;28;20025;-81
2022/01/21 07:05:34;;;;;;;41.05;19.85;;;;;;;-1.78;100.00;103493.31;5048178;28;20460;-80
2022/01/21 07:08:01;;;;;;;42.42;18.30;;;;;;;-1.74;100.00;103488.50;5051268;28;20036;-81
2022/01/21 07:10:27;;;;;;;45.63;20.05;;;;;;;-1.71;100.00;103503.19;5037179;28;20074;-81
2022/01/21 07:12:52;;;;;;;51.72;19.27;;;;;;;-1.67;100.00;103510.28;5031773;28;20436;-81
2022/01/21 07:15:19;;;;;;;47.67;20.65;;;;;;;-1.68;100.00;103506.84;5043708;28;20029;-81
2022/01/21 07:17:46;;;;;;;44.15;20.02;;;;;;;-1.60;100.00;103519.25;5050800;28;20071;-81
2022/01/21 07:20:11;;;;;;;44.40;21.27;;;;;;;-1.58;100.00;103508.34;5036233;28;20038;-81
2022/01/21 07:22:38;;;;;;;54.67;21.13;;;;;;;-1.52;100.00;103502.78;5031434;28;20068;-81
2022/01/21 07:25:04;;;;;;;45.65;20.58;;;;;;;-1.48;100.00;103505.66;5032288;28;20025;-81
2022/01/21 07:27:29;;;;;;;46.20;21.75;;;;;;;-1.53;100.00;103491.66;5031749;28;20029;-81
2022/01/21 07:29:54;;;;;;;52.53;22.40;;;;;;;-1.45;100.00;103504.97;5038940;28;20053;-81
2022/01/21 07:32:19;;;;;;;51.60;22.05;;;;;;;-1.43;100.00;103503.41;5051695;28;20025;-81
2022/01/21 07:34:45;;;;;;;45.40;23.05;;;;;;;-1.46;100.00;103508.31;5052740;28;20449;-81
2022/01/21 07:37:10;;;;;;;56.17;21.83;;;;;;;-1.45;100.00;103508.41;5054951;28;20492;-81
2022/01/21 07:39:36;;;;;;;55.50;23.67;;;;;;;-1.42;100.00;103520.53;5054768;28;20029;-81
2022/01/21 07:42:01;;;;;;;51.10;23.23;;;;;;;-1.41;100.00;103532.53;5054722;28;20112;-81
2022/01/21 07:44:26;;;;;;;58.42;23.95;;;;;;;-1.38;100.00;103526.75;5054546;28;20025;-81
2022/01/21 07:46:51;;;;;;;64.45;24.02;;;;;;;-1.41;100.00;103524.84;5055313;28;20513;-81
2022/01/21 07:49:17;;;;;;;64.32;22.75;;;;;;;-1.40;100.00;103512.97;5054045;28;20025;-81
2022/01/21 07:51:44;;;;;;;55.72;23.13;;;;;;;-1.43;100.00;103506.84;5054865;28;20029;-81
2022/01/21 07:54:10;;;;;;;58.13;23.60;;;;;;;-1.44;100.00;103522.09;5054673;28;20033;-81
2022/01/21 07:56:35;;;;;;;54.08;23.00;;;;;;;-1.48;100.00;103525.22;5053864;28;20028;-81
2022/01/21 07:59:04;;;;;;;57.58;23.50;;;;;;;-1.49;100.00;103526.03;5053996;28;20040;-81
2022/01/21 08:01:30;;;;;;;48.78;23.17;;;;;;;-1.51;100.00;103527.56;5054489;28;20500;-81
2022/01/21 08:03:55;;;;;;;53.63;22.23;;;;;;;-1.56;100.00;103516.16;5052869;28;20037;-82
2022/01/21 08:06:21;;;;;;;51.20;21.90;;;;;;;-1.56;100.00;103511.91;5054668;28;20029;-82
2022/01/21 08:08:46;;;;;;;57.47;23.13;;;;;;;-1.52;100.00;103497.66;5054335;28;20053;-81
2022/01/21 08:11:12;;;;;;;59.67;23.95;;;;;;;-1.59;100.00;103501.47;5054289;28;20036;-82
2022/01/21 08:13:37;;;;;;;49.83;23.00;;;;;;;-1.56;100.00;103498.25;5054471;28;20381;-82
2022/01/21 08:16:02;;;;;;;50.45;23.58;;;;;;;-1.51;100.00;103504.53;5052695;28;20560;-82
2022/01/21 08:18:28;;;;;;;44.22;22.90;;;;;;;-1.55;100.00;103489.78;5054326;28;20033;-82
2022/01/21 08:20:53;;;;;;;47.13;23.85;;;;;;;-1.55;100.00;103502.56;5054287;28;20025;-82
2022/01/21 08:23:19;;;;;;;48.83;22.85;;;;;;;-1.56;100.00;103499.13;5053149;28;20119;-82
2022/01/21 08:25:44;;;;;;;47.10;22.85;;;;;;;-1.58;100.00;103498.13;5054205;28;20078;-82
2022/01/21 08:28:09;;;;;;;50.58;24.10;;;;;;;-1.57;100.00;103491.34;5051938;28;20037;-82
2022/01/21 08:30:35;;;;;;;53.28;24.73;;;;;;;-1.53;100.00;103490.78;5052344;28;20024;-82
2022/01/21 08:33:01;;;;;;;49.75;23.98;;;;;;;-1.52;100.00;103487.44;5052895;28;20213;-82
2022/01/21 08:35:27;;;;;;;50.53;25.33;;;;;;;-1.49;100.00;103488.53;5053043;28;20036;-82
2022/01/21 08:37:53;;;;;;;61.42;26.58;;;;;;;-1.52;100.00;103480.63;5051498;28;20047;-82
2022/01/21 08:40:20;;;;;;;53.90;25.88;;;;;;;-1.43;100.00;103505.97;5053537;28;20021;-82
2022/01/21 08:42:46;;;;;;;59.40;25.88;;;;;;;-1.47;100.00;103504.88;5052916;28;20040;-82
2022/01/21 08:45:12;;;;;;;59.45;26.88;;;;;;;-1.45;100.00;103507.53;5051368;28;20041;-82
2022/01/21 08:47:40;;;;;;;55.75;26.83;;;;;;;-1.46;100.00;103508.31;5052627;28;20029;-82
2022/01/21 08:50:08;;;;;;;60.47;26.50;;;;;;;-1.40;100.00;103511.31;5052145;28;20412;-82
2022/01/21 08:52:37;;;;;;;60.15;26.17;;;;;;;-1.45;100.00;103494.72;5051931;28;20024;-82
2022/01/21 08:55:04;;;;;;;54.22;25.95;;;;;;;-1.44;100.00;103501.63;5052868;28;20028;-82
2022/01/21 08:57:29;;;;;;;69.28;27.65;;;;;;;-1.39;100.00;103520.75;5052591;28;20037;-81
2022/01/21 08:59:55;;;;;;;57.22;26.50;;;;;;;-1.34;100.00;103515.94;5050568;28;20752;-83
2022/01/21 09:02:20;;;;;;;62.05;27.10;;;;;;;-1.31;100.00;103517.06;5051844;28;20123;-84
2022/01/21 09:04:46;;;;;;;58.28;26.88;;;;;;;-1.34;100.00;103506.59;5052393;28;20036;-82
2022/01/21 09:07:11;;;;;;;62.97;25.63;;;;;;;-1.26;100.00;103505.44;5051927;28;20055;-83
2022/01/21 09:09:37;;;;;;;65.18;26.17;;;;;;;-1.11;100.00;103508.16;5052165;28;20024;-83
2022/01/21 09:12:02;;;;;;;66.93;27.10;;;;;;;-1.02;100.00;103495.06;5052531;28;20021;-83
2022/01/21 09:14:28;;;;;;;64.93;26.67;;;;;;;-0.89;100.00;103495.06;5051577;28;20054;-83
2022/01/21 09:16:53;;;;;;;61.58;26.48;;;;;;;-0.78;100.00;103481.31;5052475;28;20039;-83
2022/01/21 09:19:19;;;;;;;64.88;26.13;;;;;;;-0.64;100.00;103468.50;5051131;28;20025;-82
2022/01/21 09:21:45;;;;;;;61.75;27.08;;;;;;;-0.55;100.00;103469.09;5051178;28;20139;-83
2022/01/21 09:24:11;;;;;;;62.13;27.02;;;;;;;-0.50;100.00;103465.16;5050981;28;20029;-82
2022/01/21 09:26:37;;;;;;;62.33;26.92;;;;;;;-0.49;100.00;103461.81;5051205;28;20491;-82
2022/01/21 09:29:05;;;;;;;62.20;27.38;;;;;;;-0.28;100.00;103478.53;5017405;28;1010912;-82
2022/01/21 09:31:31;;;;;;;68.57;28.75;;;;;;;-0.16;100.00;103477.56;5052389;28;20113;-82
2022/01/21 09:33:56;;;;;;;65.32;29.30;;;;;;;-0.02;100.00;103477.59;5051257;28;20533;-82
2022/01/21 09:36:21;;;;;;;74.18;29.98;;;;;;;0.09;100.00;103480.81;5053449;28;20503;-82
2022/01/21 09:38:48;;;;;;;87.05;33.17;;;;;;;0.27;100.00;103490.47;5053052;28;20372;-84
2022/01/21 09:41:15;;;;;;;89.05;33.08;;;;;;;0.35;100.00;103490.09;5051753;28;20027;-82
2022/01/21 09:43:45;;;;;;;85.95;31.15;;;;;;;0.41;100.00;103487.03;5052552;28;20033;-82
2022/01/21 09:46:12;;;;;;;78.07;31.98;;;;;;;0.47;100.00;103497.69;5051729;28;20531;-83
2022/01/21 09:48:51;;;;;;;69.93;30.92;;;;;;;0.52;100.00;103487.69;5051834;28;20025;-84
2022/01/21 09:51:17;;;;;;;66.18;28.35;;;;;;;0.66;100.00;103499.69;5053078;28;20040;-83
2022/01/21 09:53:42;;;;;;;65.57;28.80;;;;;;;0.70;100.00;103502.50;5052987;28;20048;-83
2022/01/21 09:56:08;;;;;;;66.90;29.67;;;;;;;0.74;100.00;103503.56;5051141;28;20033;-83
2022/01/21 09:58:34;;;;;;;60.95;26.80;;;;;;;0.80;100.00;103500.50;5052083;28;20492;-83
2022/01/21 10:01:05;;;;;;;63.42;28.08;;;;;;;0.88;100.00;103512.09;5052527;28;20349;-83
2022/01/21 10:03:31;;;;;;;59.50;26.65;;;;;;;0.93;100.00;103502.97;5052098;28;20027;-83
2022/01/21 10:05:57;;;;;;;62.35;26.65;;;;;;;0.96;100.00;103516.00;5052383;28;20029;-84
2022/01/21 10:08:23;;;;;;;68.18;26.67;;;;;;;1.05;100.00;103525.94;5052666;28;20381;-83
2022/01/21 10:10:49;;;;;;;55.10;25.33;;;;;;;1.06;100.00;103518.31;5051841;28;20021;-84
2022/01/21 10:13:18;;;;;;;54.85;22.58;;;;;;;1.14;100.00;103523.88;5052133;28;20128;-83
2022/01/21 10:15:43;;;;;;;54.45;23.33;;;;;;;1.25;100.00;103534.81;5051072;28;20021;-84
2022/01/21 10:18:17;;;;;;;53.50;21.13;;;;;;;1.47;100.00;103532.69;5051973;28;20042;-83
2022/01/21 10:21:04;;;;;;;51.83;22.58;;;;;;;1.73;100.00;103539.25;5052246;28;20120;-83
2022/01/21 10:23:31;;;;;;;51.33;20.88;;;;;;;1.89;100.00;103535.84;5051531;28;20056;-83
2022/01/21 10:26:05;;;;;;;47.47;20.30;;;;;;;1.98;100.00;103540.63;5051775;28;20024;-83
2022/01/21 10:28:31;;;;;;;52.72;18.60;;;;;;;2.04;100.00;103540.97;5051373;28;20049;-83
2022/01/21 10:31:10;;;;;;;42.45;16.58;;;;;;;1.90;100.00;103537.66;5050752;28;20036;-83
2022/01/21 10:33:56;;;;;;;28.88;14.05;;;;;;;1.77;100.00;103550.63;5050846;28;20031;-84
2022/01/21 10:36:28;;;;;;;35.65;14.13;;;;;;;1.76;100.00;103548.84;5042354;28;20032;-84
2022/01/21 10:39:05;;;;;;;30.83;15.48;;;;;;;1.82;100.00;103538.88;5051059;28;20029;-84
2022/01/21 10:41:33;;;;;;;39.38;15.27;;;;;;;1.92;100.00;103543.75;5051585;28;20017;-83
2022/01/21 10:44:13;;;;;;;27.63;15.00;;;;;;;1.99;100.00;103545.84;5051154;28;20111;-84
2022/01/21 10:46:41;;;;;;;31.58;14.02;;;;;;;2.09;100.00;103544.66;5051523;28;20029;-83
2022/01/21 10:49:12;;;;;;;36.28;14.40;;;;;;;2.30;100.00;103543.25;5051638;28;20464;-83
2022/01/21 10:51:40;;;;;;;33.42;16.05;;;;;;;2.67;100.00;103552.06;5050847;28;20032;-84
2022/01/21 10:54:28;;;;;;;33.83;14.73;;;;;;;2.87;100.00;103535.03;5051650;28;20025;-83
2022/01/21 10:57:15;;;;;;;40.17;14.02;;;;;;;3.04;100.00;103535.13;5050688;28;20025;-83
2022/01/21 10:59:50;;;;;;;22.52;9.05;;;;;;;3.09;100.00;103537.03;5050655;28;20037;-83
2022/01/21 11:02:34;;;;;;;19.75;7.60;;;;;;;3.19;100.00;103531.53;5051516;28;20047;-84
2022/01/21 11:05:12;;;;;;;20.02;7.85;;;;;;;3.36;100.00;103522.91;5050456;28;20559;-83
2022/01/21 11:08:10;;;;;;;18.58;6.53;;;;;;;3.36;100.00;103520.34;5071055;28;20062;-83
2022/01/21 11:10:38;;;;;;;17.60;6.50;;;;;;;3.36;100.00;103528.06;5052763;28;20111;-83
2022/01/21 11:13:13;;;;;;;24.98;7.43;;;;;;;3.36;100.00;103511.72;5050681;28;20448;-83
2022/01/21 11:15:43;;;;;;;21.77;6.82;;;;;;;3.33;100.00;103511.56;5051580;28;20032;-83
2022/01/21 11:18:14;;;;;;;22.40;7.85;;;;;;;3.36;100.00;103504.88;5052714;28;20127;-83
2022/01/21 11:20:41;;;;;;;30.25;9.45;;;;;;;3.48;100.00;103502.00;5050495;28;20104;-83
2022/01/21 11:23:10;;;;;;;30.58;9.70;;;;;;;3.68;100.00;103495.22;5063834;28;20151;-83
2022/01/21 11:26:01;;;;;;;26.00;11.18;;;;;;;3.82;100.00;103468.34;5071326;28;20373;-83
2022/01/21 11:28:35;;;;;;;26.05;10.32;;;;;;;4.01;100.00;103476.94;5071266;28;20049;-83
2022/01/21 11:31:01;;;;;;;27.65;9.25;;;;;;;4.05;100.00;103476.28;5052741;28;20033;-82
2022/01/21 11:33:26;;;;;;;25.73;7.70;;;;;;;3.97;100.00;103469.06;5050534;28;20381;-83
2022/01/21 11:35:52;;;;;;;21.95;8.35;;;;;;;3.96;100.00;103469.00;5051122;28;20040;-82
2022/01/21 11:38:20;;;;;;;17.63;7.72;;;;;;;3.94;100.00;103461.19;5051488;28;20167;-83
2022/01/21 11:40:47;;;;;;;20.45;8.38;;;;;;;3.99;100.00;103462.28;5050408;28;20483;-83
2022/01/21 11:43:13;;;;;;;20.75;7.90;;;;;;;4.00;100.00;103468.34;5049161;28;20039;-83
2022/01/21 11:50:45;;;;;;;18.67;6.90;;;;;;;3.73;100.00;103474.00;5051870;28;20087;-85
2022/01/21 11:53:10;;;;;;;20.92;7.38;;;;;;;3.73;100.00;103479.16;5047150;28;20033;-83
2022/01/21 11:55:40;;;;;;;18.80;6.97;;;;;;;3.72;100.00;103477.38;5039590;28;20029;-83
2022/01/21 11:58:23;;;;;;;28.58;7.25;;;;;;;3.73;100.00;103462.78;5049749;28;20392;-83
2022/01/21 12:00:52;;;;;;;23.52;7.03;;;;;;;3.68;100.00;103461.69;5048116;28;20063;-83
2022/01/21 12:03:21;;;;;;;19.25;7.25;;;;;;;3.70;100.00;103468.69;5049166;28;20060;-83
2022/01/21 12:05:46;;;;;;;22.15;7.35;;;;;;;3.68;100.00;103465.13;5033565;28;20485;-83